Time;durP1;ratioP1;P1;durP2;ratioP2;P2;SDS_P1;SDS_P2;PMS_P1;PMS_P2;Temp;Humidity;BMP_temperature;BMP_pressure;BME280_temperature;BME280_humidity;BME280_pressure;Samples;Min_cycle;Max_cycle;Signal;HPM_P1;HPM_P2
2021/10/10 00:01:29;;;;;;;13.52;9.55;;;18.90;78.40;;;;;;5012989;28;88128;-72
2021/10/10 00:03:57;;;;;;;10.73;8.32;;;18.90;78.50;;;;;;5014917;28;87254;-72
2021/10/10 00:06:23;;;;;;;12.25;9.20;;;18.90;78.50;;;;;;5016313;27;89679;-73
2021/10/10 00:08:49;;;;;;;10.55;9.10;;;18.90;78.50;;;;;;5015155;28;88870;-73
2021/10/10 00:11:14;;;;;;;12.15;9.32;;;18.90;78.50;;;;;;5017775;28;87134;-72
2021/10/10 00:13:42;;;;;;;11.57;9.25;;;18.80;78.50;;;;;;5017924;28;87641;-71
2021/10/10 00:16:08;;;;;;;12.48;8.88;;;18.80;78.50;;;;;;5019364;28;88717;-73
2021/10/10 00:18:33;;;;;;;11.82;8.75;;;18.80;78.60;;;;;;5026775;27;89886;-73
2021/10/10 00:20:59;;;;;;;11.52;8.80;;;18.80;78.70;;;;;;5018079;28;88028;-73
2021/10/10 00:23:25;;;;;;;10.75;8.48;;;18.80;78.70;;;;;;5016177;27;87172;-72
2021/10/10 00:25:50;;;;;;;11.38;9.00;;;18.80;78.70;;;;;;5027882;27;91411;-73
2021/10/10 00:28:16;;;;;;;10.90;8.70;;;18.80;78.70;;;;;;5020494;27;88452;-73
2021/10/10 00:30:41;;;;;;;13.52;8.75;;;18.80;78.80;;;;;;5027454;28;88622;-72
2021/10/10 00:33:07;;;;;;;12.48;8.65;;;18.70;78.70;;;;;;5013923;28;87458;-73
2021/10/10 00:35:34;;;;;;;10.65;8.43;;;18.70;78.80;;;;;;5016491;27;88134;-72
2021/10/10 00:38:01;;;;;;;10.57;9.00;;;18.70;78.80;;;;;;5016720;28;88080;-72
2021/10/10 00:40:27;;;;;;;10.15;7.88;;;18.70;78.80;;;;;;5027498;27;87237;-74
2021/10/10 00:42:52;;;;;;;11.85;8.93;;;18.70;78.90;;;;;;5024413;27;91084;-73
2021/10/10 00:45:18;;;;;;;11.13;8.77;;;18.60;78.90;;;;;;5014720;28;87811;-73
2021/10/10 00:47:44;;;;;;;12.25;9.18;;;18.60;78.90;;;;;;5017206;27;87964;-73
2021/10/10 00:50:10;;;;;;;9.20;7.80;;;18.60;78.90;;;;;;5021343;27;87434;-73
2021/10/10 00:52:41;;;;;;;11.38;8.90;;;18.60;79.00;;;;;;5016047;28;87341;-73
2021/10/10 00:55:08;;;;;;;10.50;8.05;;;18.60;79.10;;;;;;5016483;28;88301;-73
2021/10/10 00:57:36;;;;;;;10.43;8.27;;;18.60;79.20;;;;;;5014790;28;92178;-73
2021/10/10 01:00:05;;;;;;;12.43;9.07;;;18.60;79.20;;;;;;5017621;28;87097;-73
2021/10/10 01:02:32;;;;;;;12.13;9.13;;;18.50;79.30;;;;;;5019890;27;88288;-72
2021/10/10 01:04:57;;;;;;;12.45;8.98;;;18.50;79.40;;;;;;5009770;28;87832;-72
2021/10/10 01:07:25;;;;;;;10.27;7.82;;;18.50;79.50;;;;;;5008703;27;91215;-73
2021/10/10 01:09:51;;;;;;;12.80;9.18;;;18.50;79.50;;;;;;5017933;27;87409;-73
2021/10/10 01:12:20;;;;;;;11.02;8.57;;;18.50;79.60;;;;;;5012595;27;87197;-73
2021/10/10 01:14:45;;;;;;;10.45;8.57;;;18.50;79.60;;;;;;5017535;28;87676;-73
2021/10/10 01:17:11;;;;;;;12.32;9.07;;;18.50;80.20;;;;;;5017626;27;91175;-72
2021/10/10 01:19:38;;;;;;;10.45;8.55;;;18.40;79.60;;;;;;5016707;28;88296;-72
2021/10/10 01:22:04;;;;;;;9.95;7.80;;;18.50;79.70;;;;;;5018734;28;89290;-73
2021/10/10 01:24:32;;;;;;;11.35;8.63;;;18.40;79.70;;;;;;5012610;28;88256;-72
2021/10/10 01:26:57;;;;;;;10.70;8.25;;;18.40;79.70;;;;;;5017652;28;91458;-73
2021/10/10 01:29:23;;;;;;;10.30;8.25;;;18.40;79.70;;;;;;5015624;28;87242;-73
2021/10/10 01:31:49;;;;;;;9.10;7.70;;;18.40;79.70;;;;;;5017989;28;87746;-72
2021/10/10 01:34:15;;;;;;;9.77;7.97;;;18.40;79.70;;;;;;5013476;28;88566;-72
2021/10/10 01:36:42;;;;;;;11.38;8.48;;;18.40;79.70;;;;;;5010482;28;88020;-72
2021/10/10 01:39:07;;;;;;;11.73;9.50;;;18.30;79.50;;;;;;5025435;28;87644;-72
2021/10/10 01:41:33;;;;;;;10.15;8.63;;;18.30;79.60;;;;;;5022071;28;87833;-72
2021/10/10 01:43:59;;;;;;;12.07;8.63;;;18.40;79.50;;;;;;5017951;27;89226;-72
2021/10/10 01:46:24;;;;;;;9.88;8.40;;;18.30;79.50;;;;;;5018273;28;88404;-73
2021/10/10 01:48:50;;;;;;;10.63;8.75;;;18.30;79.60;;;;;;5024884;28;87950;-73
2021/10/10 01:51:16;;;;;;;12.30;9.05;;;18.30;79.60;;;;;;5018547;28;90097;-72
2021/10/10 01:53:42;;;;;;;10.65;8.60;;;18.30;79.50;;;;;;5020186;28;88234;-73
2021/10/10 01:56:08;;;;;;;11.65;8.98;;;18.30;79.50;;;;;;5025976;27;90757;-72
2021/10/10 01:58:34;;;;;;;10.63;7.88;;;18.30;79.60;;;;;;5018331;27;87606;-72
2021/10/10 02:01:00;;;;;;;9.95;8.32;;;18.30;79.50;;;;;;5023478;28;87227;-72
2021/10/10 02:03:26;;;;;;;10.98;8.30;;;18.30;79.60;;;;;;5016462;28;91220;-72
2021/10/10 02:05:53;;;;;;;11.20;8.27;;;18.30;79.50;;;;;;5018056;28;87735;-72
2021/10/10 02:08:19;;;;;;;11.48;7.80;;;18.30;79.60;;;;;;5026683;27;89150;-73
2021/10/10 02:10:45;;;;;;;8.88;7.53;;;18.20;79.60;;;;;;5012332;28;88350;-72
2021/10/10 02:13:12;;;;;;;10.60;8.13;;;18.20;80.10;;;;;;5011742;28;88155;-73
2021/10/10 02:15:39;;;;;;;10.80;8.23;;;18.20;79.60;;;;;;5018795;28;87702;-72
2021/10/10 02:18:06;;;;;;;11.82;8.38;;;18.20;79.50;;;;;;5020861;27;87725;-73
2021/10/10 02:20:32;;;;;;;10.80;7.88;;;18.20;79.50;;;;;;5018170;28;87798;-72
2021/10/10 02:22:57;;;;;;;10.73;8.30;;;18.20;79.60;;;;;;5011594;28;87591;-72
2021/10/10 02:25:23;;;;;;;10.10;7.88;;;18.20;79.50;;;;;;5020813;27;88249;-73
2021/10/10 02:27:49;;;;;;;10.88;8.52;;;18.20;79.50;;;;;;5014294;28;87121;-72
2021/10/10 02:30:15;;;;;;;11.45;8.80;;;18.10;79.50;;;;;;5023891;27;87985;-72
2021/10/10 02:32:41;;;;;;;10.02;7.47;;;18.20;79.60;;;;;;5025058;28;89675;-73
2021/10/10 02:35:07;;;;;;;10.27;7.82;;;18.10;79.50;;;;;;5020042;28;88819;-72
2021/10/10 02:37:33;;;;;;;12.13;8.40;;;18.10;79.60;;;;;;5016239;28;88023;-72
2021/10/10 02:39:59;;;;;;;10.13;8.07;;;18.10;79.60;;;;;;5019664;27;88247;-74
2021/10/10 02:42:24;;;;;;;10.35;8.32;;;18.10;79.60;;;;;;5024165;27;87438;-72
2021/10/10 02:44:50;;;;;;;9.93;8.07;;;18.10;79.60;;;;;;5011846;28;88212;-74
2021/10/10 02:47:16;;;;;;;10.93;7.95;;;18.10;79.60;;;;;;5016560;28;87585;-72
2021/10/10 02:49:42;;;;;;;11.45;8.27;;;18.10;79.60;;;;;;5019865;27;87607;-73
2021/10/10 02:52:08;;;;;;;11.02;7.95;;;18.10;79.70;;;;;;5016302;28;88141;-73
2021/10/10 02:54:34;;;;;;;10.00;8.32;;;18.10;79.60;;;;;;5019062;27;87911;-73
2021/10/10 02:56:59;;;;;;;9.65;7.50;;;18.10;79.60;;;;;;5016917;27;88930;-73
2021/10/10 02:59:25;;;;;;;11.40;7.97;;;18.00;79.70;;;;;;5014058;27;88205;-72
2021/10/10 03:01:50;;;;;;;9.85;7.82;;;18.00;79.80;;;;;;5028350;27;90784;-72
2021/10/10 03:04:16;;;;;;;10.02;8.15;;;18.00;79.90;;;;;;5015271;27;87506;-72
2021/10/10 03:06:41;;;;;;;9.60;7.97;;;18.00;79.90;;;;;;5027774;27;87631;-72
2021/10/10 03:09:07;;;;;;;10.88;8.30;;;18.00;79.90;;;;;;5015989;27;88426;-74
2021/10/10 03:11:33;;;;;;;10.10;7.88;;;18.00;80.00;;;;;;5021483;28;87763;-71
2021/10/10 03:13:58;;;;;;;9.13;7.72;;;18.00;80.00;;;;;;5017451;27;87943;-72
2021/10/10 03:16:24;;;;;;;10.38;7.60;;;17.90;80.10;;;;;;5018738;27;87786;-72
2021/10/10 03:18:50;;;;;;;9.85;8.18;;;18.00;80.10;;;;;;5019227;28;90068;-73
2021/10/10 03:21:15;;;;;;;10.70;8.02;;;17.90;80.10;;;;;;5019408;27;92664;-72
2021/10/10 03:23:41;;;;;;;9.45;7.75;;;17.90;80.10;;;;;;5016273;28;88975;-73
2021/10/10 03:26:06;;;;;;;10.20;8.32;;;17.90;80.20;;;;;;5016061;28;87885;-72
2021/10/10 03:28:32;;;;;;;10.38;8.40;;;17.90;80.30;;;;;;5022821;27;87652;-72
2021/10/10 03:30:58;;;;;;;10.20;7.78;;;17.80;80.10;;;;;;5020317;28;88180;-73
2021/10/10 03:33:24;;;;;;;9.63;7.90;;;17.80;80.10;;;;;;5029904;27;90352;-71
2021/10/10 03:35:50;;;;;;;10.82;8.57;;;17.80;80.10;;;;;;5020306;28;87822;-73
2021/10/10 03:38:15;;;;;;;9.63;7.55;;;17.80;80.10;;;;;;5017848;27;87157;-72
2021/10/10 03:40:41;;;;;;;9.02;7.50;;;17.90;80.20;;;;;;5018210;27;90655;-72
2021/10/10 03:43:07;;;;;;;10.00;8.00;;;17.90;80.10;;;;;;5018746;27;88343;-73
2021/10/10 03:45:32;;;;;;;9.18;7.40;;;17.80;80.10;;;;;;5016432;27;89466;-73
2021/10/10 03:47:58;;;;;;;9.50;7.72;;;17.80;80.10;;;;;;5022246;27;87243;-72
2021/10/10 03:50:24;;;;;;;9.77;7.82;;;17.80;80.10;;;;;;5028727;27;90474;-73
2021/10/10 03:52:50;;;;;;;9.35;7.57;;;17.80;80.10;;;;;;5012689;28;87927;-73
2021/10/10 03:57:44;;;;;;;11.25;8.30;;;17.80;80.10;;;;;;5021941;28;87474;-72
2021/10/10 04:00:12;;;;;;;10.55;8.05;;;17.70;80.00;;;;;;5018233;27;90868;-72
2021/10/10 04:02:39;;;;;;;9.40;7.65;;;17.70;80.10;;;;;;5026084;27;89696;-73
2021/10/10 04:05:08;;;;;;;10.30;7.95;;;17.70;80.10;;;;;;5018866;27;87526;-73
2021/10/10 04:07:34;;;;;;;10.23;8.55;;;17.70;80.20;;;;;;5015483;27;87184;-73
2021/10/10 04:09:59;;;;;;;9.48;7.45;;;17.70;80.10;;;;;;5015440;28;89213;-72
2021/10/10 04:12:25;;;;;;;11.93;8.23;;;17.70;80.20;;;;;;5012225;28;89237;-73
2021/10/10 04:14:51;;;;;;;9.65;7.40;;;17.60;80.20;;;;;;5016212;27;87801;-72
2021/10/10 04:17:17;;;;;;;10.75;8.38;;;17.70;80.20;;;;;;5025224;27;90050;-72
2021/10/10 04:19:43;;;;;;;9.82;7.63;;;17.60;80.20;;;;;;5013021;28;88371;-72
2021/10/10 04:22:08;;;;;;;9.82;7.80;;;17.60;80.30;;;;;;5011224;28;87651;-72
2021/10/10 04:24:34;;;;;;;10.90;7.85;;;17.60;80.20;;;;;;5016045;28;87323;-72
2021/10/10 04:27:02;;;;;;;9.80;8.00;;;17.60;80.30;;;;;;5018987;27;88170;-71
2021/10/10 04:29:28;;;;;;;9.77;7.80;;;17.60;80.30;;;;;;5020917;27;88518;-72
2021/10/10 04:31:53;;;;;;;8.45;7.50;;;17.60;80.30;;;;;;5022785;28;90439;-73
2021/10/10 04:34:19;;;;;;;8.98;7.32;;;17.50;80.20;;;;;;5013772;28;88376;-72
2021/10/10 04:36:45;;;;;;;9.10;7.70;;;17.50;80.30;;;;;;5014851;28;88115;-73
2021/10/10 04:39:10;;;;;;;10.70;8.23;;;17.50;80.30;;;;;;5020605;28;87717;-72
2021/10/10 04:41:36;;;;;;;9.10;7.35;;;17.50;80.30;;;;;;5017748;28;87934;-75
2021/10/10 04:44:02;;;;;;;10.15;7.85;;;17.50;80.40;;;;;;5014420;28;87964;-73
2021/10/10 04:46:27;;;;;;;9.35;7.53;;;17.50;80.50;;;;;;5010883;28;88087;-73
2021/10/10 04:48:53;;;;;;;9.20;7.70;;;17.50;80.40;;;;;;5021377;27;88323;-73
2021/10/10 04:51:18;;;;;;;8.90;7.00;;;17.50;80.30;;;;;;5017580;28;88569;-72
2021/10/10 04:53:44;;;;;;;10.10;7.85;;;17.50;80.40;;;;;;5016704;28;87794;-73
2021/10/10 04:56:10;;;;;;;10.23;7.63;;;17.50;80.40;;;;;;5010895;28;87635;-72
2021/10/10 04:58:35;;;;;;;11.35;7.53;;;17.50;80.50;;;;;;5011776;28;89131;-73
2021/10/10 05:01:01;;;;;;;10.00;7.88;;;17.40;80.40;;;;;;5012811;28;88769;-74
2021/10/10 05:03:30;;;;;;;9.52;7.55;;;17.40;80.30;;;;;;5022957;27;88251;-73
2021/10/10 05:05:56;;;;;;;9.93;7.35;;;17.40;80.50;;;;;;5023192;27;88648;-73
2021/10/10 05:08:21;;;;;;;9.40;7.40;;;17.40;80.50;;;;;;5015975;28;87601;-72
2021/10/10 05:10:47;;;;;;;9.88;7.40;;;17.40;80.60;;;;;;5018242;28;88222;-72
2021/10/10 05:13:12;;;;;;;8.75;6.90;;;17.40;80.80;;;;;;5015241;28;87789;-72
2021/10/10 05:15:38;;;;;;;10.35;7.72;;;17.40;80.80;;;;;;5016341;27;87658;-72
2021/10/10 05:18:04;;;;;;;9.48;7.32;;;17.40;80.70;;;;;;5013528;28;88382;-73
2021/10/10 05:20:29;;;;;;;8.93;6.78;;;17.40;80.80;;;;;;5022363;28;87848;-73
2021/10/10 05:22:55;;;;;;;10.02;7.75;;;17.30;80.90;;;;;;5015622;28;88624;-73
2021/10/10 05:25:21;;;;;;;8.95;7.53;;;17.30;80.90;;;;;;5018866;27;88151;-72
2021/10/10 05:27:47;;;;;;;10.13;7.60;;;17.30;81.00;;;;;;5011646;28;87842;-72
2021/10/10 05:30:12;;;;;;;8.60;6.88;;;17.30;81.00;;;;;;5009954;28;88809;-73
2021/10/10 05:32:38;;;;;;;9.82;7.45;;;17.30;81.10;;;;;;5020183;27;88228;-73
2021/10/10 05:35:04;;;;;;;10.07;7.88;;;17.30;81.50;;;;;;5015466;28;87718;-72
2021/10/10 05:37:30;;;;;;;10.25;7.85;;;17.30;83.60;;;;;;5017138;28;88403;-73
2021/10/10 05:39:56;;;;;;;11.05;7.45;;;17.50;84.10;;;;;;5016225;27;87735;-72
2021/10/10 05:42:21;;;;;;;11.73;8.85;;;17.60;82.80;;;;;;5027678;27;87733;-73
2021/10/10 05:44:47;;;;;;;11.48;8.80;;;17.70;83.40;;;;;;5018284;27;88198;-72
2021/10/10 05:47:13;;;;;;;11.05;8.63;;;17.80;82.70;;;;;;5018865;28;88990;-72
2021/10/10 05:49:38;;;;;;;10.68;7.82;;;17.90;81.90;;;;;;5016878;27;88939;-72
2021/10/10 05:52:06;;;;;;;9.73;7.85;;;17.90;81.00;;;;;;5020206;27;87241;-73
2021/10/10 05:54:33;;;;;;;10.63;8.00;;;17.90;80.60;;;;;;5023221;27;88193;-72
2021/10/10 05:57:03;;;;;;;10.90;7.93;;;17.90;80.50;;;;;;5025178;27;88116;-72
2021/10/10 05:59:33;;;;;;;11.25;8.45;;;17.90;80.30;;;;;;5017552;27;87997;-73
2021/10/10 06:01:58;;;;;;;10.88;8.13;;;17.90;80.00;;;;;;5014266;28;87577;-72
2021/10/10 06:04:24;;;;;;;9.60;7.53;;;17.90;79.90;;;;;;5016125;28;87470;-72
2021/10/10 06:06:50;;;;;;;8.98;7.55;;;17.80;79.70;;;;;;5020387;28;88149;-73
2021/10/10 06:09:15;;;;;;;10.57;8.10;;;17.80;79.80;;;;;;5018616;28;88323;-72
2021/10/10 06:11:41;;;;;;;10.02;7.55;;;17.70;79.90;;;;;;5028339;27;88479;-72
2021/10/10 06:14:07;;;;;;;11.07;8.10;;;17.70;80.20;;;;;;5023022;27;87919;-73
2021/10/10 06:16:33;;;;;;;10.82;8.23;;;17.60;80.10;;;;;;5024219;27;88047;-72
2021/10/10 06:19:00;;;;;;;10.80;7.40;;;17.60;80.20;;;;;;5028958;27;90953;-71
2021/10/10 06:21:26;;;;;;;10.68;7.45;;;17.60;80.30;;;;;;5022408;27;87733;-72
2021/10/10 06:23:53;;;;;;;11.20;7.25;;;17.60;80.20;;;;;;5017970;27;87278;-72
2021/10/10 06:26:19;;;;;;;12.02;7.53;;;17.50;80.20;;;;;;5015402;27;89181;-73
2021/10/10 06:28:45;;;;;;;9.75;7.80;;;17.50;80.30;;;;;;5020123;27;88474;-73
2021/10/10 06:31:11;;;;;;;8.68;7.20;;;17.50;80.30;;;;;;5017361;27;88001;-72
2021/10/10 06:33:36;;;;;;;9.25;7.30;;;17.40;80.20;;;;;;5027034;27;87767;-72
2021/10/10 06:36:02;;;;;;;10.05;7.40;;;17.40;80.10;;;;;;5018036;28;89335;-73
2021/10/10 06:38:28;;;;;;;9.02;7.38;;;17.40;80.20;;;;;;5015987;27;88351;-71
2021/10/10 06:40:53;;;;;;;9.38;7.07;;;17.40;80.10;;;;;;5024531;27;87037;-72
2021/10/10 06:43:19;;;;;;;10.63;7.57;;;17.40;80.10;;;;;;5025573;27;89314;-75
2021/10/10 06:45:45;;;;;;;9.05;7.18;;;17.50;80.10;;;;;;5016298;28;90738;-72
2021/10/10 06:48:10;;;;;;;9.35;7.60;;;17.50;79.90;;;;;;5018469;27;87883;-75
2021/10/10 06:50:36;;;;;;;12.60;8.05;;;17.50;79.70;;;;;;5016091;28;87446;-71
2021/10/10 06:53:02;;;;;;;11.80;8.10;;;17.60;78.20;;;;;;5020592;27;87354;-74
2021/10/10 06:55:27;;;;;;;11.55;7.20;;;17.80;77.60;;;;;;5027022;27;87975;-72
2021/10/10 06:57:53;;;;;;;10.75;8.10;;;17.90;77.90;;;;;;5014448;27;88113;-73
2021/10/10 07:00:19;;;;;;;146.43;25.70;;;18.10;78.30;;;;;;5030065;27;88799;-71
2021/10/10 07:02:45;;;;;;;89.95;20.20;;;18.30;77.80;;;;;;5029259;27;90730;-72
2021/10/10 07:05:12;;;;;;;108.97;20.05;;;18.40;77.30;;;;;;5017408;28;88031;-71
2021/10/10 07:07:38;;;;;;;83.50;18.73;;;18.50;76.80;;;;;;5028079;27;91303;-72
2021/10/10 07:10:06;;;;;;;68.60;17.13;;;18.60;75.70;;;;;;5015796;27;87925;-72
2021/10/10 07:12:33;;;;;;;64.20;15.90;;;18.60;74.30;;;;;;5018871;28;90198;-72
2021/10/10 07:15:02;;;;;;;45.15;13.80;;;18.70;73.70;;;;;;5014309;28;88134;-72
2021/10/10 07:17:28;;;;;;;43.08;13.63;;;18.70;72.80;;;;;;5018222;27;88269;-72
2021/10/10 07:20:03;;;;;;;53.63;15.10;;;18.80;72.20;;;;;;5022235;27;87758;-71
2021/10/10 07:27:22;;;;;;;37.15;12.18;;;19.10;72.20;;;;;;5012910;27;88404;-70
2021/10/10 07:29:48;;;;;;;43.85;13.13;;;19.10;72.30;;;;;;5017577;28;87193;-70
2021/10/10 07:32:14;;;;;;;42.10;13.32;;;19.20;72.00;;;;;;5015202;27;88358;-74
2021/10/10 07:34:40;;;;;;;39.72;12.52;;;19.30;72.30;;;;;;5021549;28;88162;-71
2021/10/10 07:37:05;;;;;;;36.72;13.25;;;19.40;71.40;;;;;;5019150;27;87908;-71
2021/10/10 07:39:31;;;;;;;30.63;12.77;;;19.50;69.90;;;;;;5025602;27;87531;-73
2021/10/10 07:41:57;;;;;;;30.10;12.20;;;19.50;68.80;;;;;;5014710;28;86281;-71
2021/10/10 07:44:27;;;;;;;27.25;11.52;;;19.60;68.00;;;;;;5012245;27;88980;-73
2021/10/10 07:47:06;;;;;;;29.17;12.10;;;19.70;66.90;;;;;;5015917;28;88598;-73
2021/10/10 07:49:33;;;;;;;24.00;11.65;;;19.70;65.90;;;;;;5021762;27;88719;-72
2021/10/10 07:51:59;;;;;;;18.45;10.57;;;19.80;65.90;;;;;;5014454;27;87951;-71
2021/10/10 07:54:25;;;;;;;28.77;12.10;;;19.90;64.80;;;;;;5018846;27;87771;-72
2021/10/10 07:56:50;;;;;;;20.17;10.98;;;19.90;64.90;;;;;;5025637;27;91154;-71
2021/10/10 07:59:16;;;;;;;27.98;11.32;;;20.00;63.70;;;;;;5020205;27;88077;-72
2021/10/10 08:01:41;;;;;;;20.25;10.07;;;20.10;63.10;;;;;;5026399;27;89798;-70
2021/10/10 08:04:07;;;;;;;20.30;10.13;;;20.20;63.30;;;;;;5027715;27;91922;-71
2021/10/10 08:06:33;;;;;;;19.77;10.70;;;20.30;62.70;;;;;;5014776;28;87579;-72
2021/10/10 08:08:58;;;;;;;20.25;10.02;;;20.40;62.70;;;;;;5020847;27;88298;-71
2021/10/10 08:11:26;;;;;;;21.17;10.93;;;20.50;62.50;;;;;;5013736;28;87977;-72
2021/10/10 08:13:51;;;;;;;26.80;11.57;;;20.50;63.50;;;;;;5023204;27;92593;-72
2021/10/10 08:16:17;;;;;;;32.17;14.80;;;20.60;62.60;;;;;;5011326;28;89520;-72
2021/10/10 08:18:45;;;;;;;38.15;16.52;;;20.70;62.60;;;;;;5013865;27;87415;-73
2021/10/10 08:21:11;;;;;;;28.58;13.07;;;20.80;62.40;;;;;;5017663;28;88591;-71
2021/10/10 08:23:37;;;;;;;32.83;12.93;;;20.90;62.00;;;;;;5012128;28;88157;-71
2021/10/10 08:26:03;;;;;;;24.42;12.65;;;20.90;61.20;;;;;;5013014;28;88037;-72
2021/10/10 08:28:29;;;;;;;23.35;12.38;;;21.00;60.90;;;;;;5024732;27;87208;-70
2021/10/10 08:30:55;;;;;;;25.08;11.07;;;21.10;60.20;;;;;;5014801;28;86901;-71
2021/10/10 08:33:22;;;;;;;25.52;11.60;;;21.20;60.40;;;;;;5024901;28;89943;-70
2021/10/10 08:35:49;;;;;;;23.17;11.55;;;21.30;60.90;;;;;;5019146;27;88364;-68
2021/10/10 08:38:15;;;;;;;602.95;146.82;;;21.40;60.90;;;;;;5018542;28;88197;-69
2021/10/10 08:40:42;;;;;;;805.63;247.32;;;21.50;62.00;;;;;;5015176;27;87604;-73
2021/10/10 08:43:13;;;;;;;672.10;198.07;;;21.60;62.40;;;;;;5013908;27;88315;-71
2021/10/10 08:45:41;;;;;;;514.35;139.15;;;21.70;62.10;;;;;;5015201;27;91314;-68
2021/10/10 08:48:06;;;;;;;432.90;115.45;;;21.80;61.60;;;;;;5016572;27;88101;-71
2021/10/10 08:50:33;;;;;;;284.90;80.68;;;21.90;60.80;;;;;;5016232;27;87667;-69
2021/10/10 08:53:00;;;;;;;230.52;62.70;;;22.00;59.90;;;;;;5017061;27;91312;-71
2021/10/10 08:55:31;;;;;;;244.30;64.38;;;22.10;59.40;;;;;;5019438;27;87488;-70
2021/10/10 08:57:58;;;;;;;192.40;53.28;;;22.20;58.70;;;;;;5014234;27;87812;-71
2021/10/10 09:00:33;;;;;;;252.18;66.43;;;22.20;58.80;;;;;;5020596;27;87948;-72
2021/10/10 09:03:00;;;;;;;201.57;54.92;;;22.30;59.20;;;;;;5014068;27;89383;-70
2021/10/10 09:05:26;;;;;;;195.52;53.90;;;22.40;59.00;;;;;;5010104;28;88943;-69
2021/10/10 09:07:55;;;;;;;155.15;49.88;;;22.40;58.70;;;;;;5015259;27;87960;-72
2021/10/10 09:10:31;;;;;;;192.40;55.38;;;22.50;59.60;;;;;;5020104;27;90012;-70
2021/10/10 09:13:30;;;;;;;157.02;47.22;;;22.60;59.40;;;;;;5021113;28;88438;-70
2021/10/10 09:15:56;;;;;;;145.38;44.17;;;22.60;58.40;;;;;;5014062;28;88266;-69
2021/10/10 09:18:41;;;;;;;114.72;38.40;;;22.70;58.50;;;;;;5015257;28;87034;-70
2021/10/10 09:21:29;;;;;;;120.80;37.40;;;22.70;59.00;;;;;;5019054;28;87479;-70
2021/10/10 09:23:59;;;;;;;124.47;39.20;;;22.80;57.90;;;;;;5016776;27;88160;-70
2021/10/10 09:26:25;;;;;;;119.97;38.72;;;22.90;57.40;;;;;;5013564;28;91084;-70
2021/10/10 09:28:51;;;;;;;78.32;28.77;;;23.00;57.50;;;;;;5018643;28;88983;-71
2021/10/10 09:31:17;;;;;;;111.07;32.58;;;23.10;57.10;;;;;;5019967;27;87670;-70
2021/10/10 09:33:52;;;;;;;92.35;29.92;;;23.10;57.60;;;;;;5019642;27;87043;-69
2021/10/10 09:36:29;;;;;;;91.70;29.58;;;23.30;56.60;;;;;;5019472;27;87980;-71
2021/10/10 09:39:01;;;;;;;97.47;32.53;;;23.30;56.90;;;;;;5013133;28;88202;-72
2021/10/10 09:41:38;;;;;;;111.13;35.97;;;23.40;57.50;;;;;;5015831;28;88066;-72
2021/10/10 09:44:19;;;;;;;105.57;33.70;;;23.50;57.40;;;;;;5015712;27;87766;-72
2021/10/10 09:47:03;;;;;;;93.93;30.08;;;23.60;58.00;;;;;;5039311;22;91334;-77
2021/10/10 09:49:32;;;;;;;87.05;29.60;;;23.70;58.50;;;;;;4976758;28;87976;-76
2021/10/10 09:52:15;;;;;;;94.45;31.15;;;23.90;58.20;;;;;;4977717;28;87023;-78
2021/10/10 09:54:52;;;;;;;104.18;35.63;;;24.10;58.40;;;;;;4961160;28;92194;-78
2021/10/10 09:57:28;;;;;;;100.90;34.03;;;24.20;57.90;;;;;;4980734;28;89527;-77
2021/10/10 09:59:54;;;;;;;97.95;32.10;;;24.30;57.80;;;;;;4962772;28;87147;-77
2021/10/10 10:02:42;;;;;;;93.25;31.92;;;24.40;57.70;;;;;;4957529;28;89049;-79
2021/10/10 10:05:08;;;;;;;73.60;27.10;;;24.50;57.30;;;;;;4959506;28;92826;-77
2021/10/10 10:07:35;;;;;;;89.13;31.35;;;24.60;56.20;;;;;;4975956;28;90295;-77
2021/10/10 10:10:01;;;;;;;89.35;31.48;;;24.70;56.60;;;;;;4976681;28;87077;-77
2021/10/10 10:12:27;;;;;;;91.07;31.10;;;24.70;56.60;;;;;;4959088;28;90091;-76
2021/10/10 10:14:59;;;;;;;72.53;27.55;;;24.70;56.60;;;;;;4976725;28;87954;-76
2021/10/10 10:17:27;;;;;;;84.15;28.48;;;24.80;56.40;;;;;;4978667;28;88006;-80
2021/10/10 10:19:57;;;;;;;71.60;28.08;;;24.80;56.20;;;;;;4981774;28;87955;-78
2021/10/10 10:22:26;;;;;;;74.03;28.83;;;24.80;56.10;;;;;;4980764;28;87147;-78
2021/10/10 10:24:52;;;;;;;88.32;27.88;;;24.70;56.00;;;;;;4977262;28;88569;-78
2021/10/10 10:27:19;;;;;;;76.82;27.42;;;24.80;56.00;;;;;;4979339;28;87169;-77
2021/10/10 10:29:48;;;;;;;69.60;25.90;;;24.80;56.40;;;;;;4980749;28;87071;-77
2021/10/10 10:32:15;;;;;;;71.00;25.65;;;24.90;56.70;;;;;;4961878;28;89272;-76
2021/10/10 10:35:08;;;;;;;92.38;28.30;;;24.90;56.00;;;;;;4977869;28;87672;-76
2021/10/10 10:37:42;;;;;;;65.18;24.98;;;25.00;57.60;;;;;;4981498;28;90092;-77
2021/10/10 10:40:27;;;;;;;68.88;26.13;;;25.10;56.70;;;;;;4981026;28;87058;-77
2021/10/10 10:42:55;;;;;;;70.88;25.80;;;25.30;55.80;;;;;;4991988;28;90281;-78
2021/10/10 10:45:28;;;;;;;69.93;26.08;;;25.30;56.80;;;;;;4976557;28;89054;-76
2021/10/10 10:47:56;;;;;;;75.40;25.23;;;25.30;56.40;;;;;;4976366;28;89170;-77
2021/10/10 10:50:22;;;;;;;59.90;23.70;;;25.20;55.30;;;;;;4977274;28;87061;-76
2021/10/10 10:53:01;;;;;;;59.00;21.38;;;25.10;54.80;;;;;;4977893;28;87354;-76
2021/10/10 10:55:37;;;;;;;58.95;21.90;;;25.00;54.80;;;;;;4977458;28;88600;-76
2021/10/10 10:58:05;;;;;;;65.22;22.35;;;25.00;54.60;;;;;;4977377;28;87906;-76
2021/10/10 11:00:35;;;;;;;60.20;24.00;;;25.00;54.70;;;;;;4960430;28;87193;-76
2021/10/10 11:03:08;;;;;;;60.38;22.73;;;25.10;54.80;;;;;;4962948;28;90108;-77
2021/10/10 11:06:05;;;;;;;66.97;23.00;;;25.20;54.80;;;;;;4962670;28;89989;-77
2021/10/10 11:08:34;;;;;;;53.45;22.35;;;25.30;54.80;;;;;;4962265;28;91859;-76
2021/10/10 11:11:13;;;;;;;61.63;22.38;;;25.20;54.70;;;;;;4979626;28;87948;-77
2021/10/10 11:13:59;;;;;;;53.70;22.25;;;25.10;54.90;;;;;;4961029;28;90448;-77
2021/10/10 11:16:29;;;;;;;54.83;22.83;;;24.90;55.20;;;;;;4978231;28;88692;-77
2021/10/10 11:18:56;;;;;;;54.95;23.00;;;24.80;55.50;;;;;;4980536;28;87837;-77
2021/10/10 11:21:30;;;;;;;60.55;21.27;;;24.70;55.70;;;;;;4978820;28;87191;-77
2021/10/10 11:24:04;;;;;;;55.47;22.60;;;24.60;55.90;;;;;;4977737;28;87191;-78
2021/10/10 11:26:33;;;;;;;50.17;21.00;;;24.60;56.10;;;;;;4964574;28;91540;-77
2021/10/10 11:29:12;;;;;;;52.08;23.08;;;24.50;56.20;;;;;;4982477;28;87847;-77
2021/10/10 11:31:40;;;;;;;51.95;21.33;;;24.40;56.30;;;;;;4965075;28;87396;-77
2021/10/10 11:34:24;;;;;;;54.70;22.88;;;24.30;56.40;;;;;;4982649;28;86822;-77
2021/10/10 11:36:58;;;;;;;58.17;20.95;;;24.30;56.60;;;;;;4981900;28;89838;-77
2021/10/10 11:39:31;;;;;;;55.75;22.10;;;24.30;56.70;;;;;;4962662;28;89210;-77
2021/10/10 11:42:08;;;;;;;56.73;22.43;;;24.20;56.80;;;;;;4962235;28;87068;-77
2021/10/10 11:44:35;;;;;;;53.63;20.63;;;24.20;56.90;;;;;;4974170;28;87638;-78
2021/10/10 11:47:04;;;;;;;55.47;21.98;;;24.20;57.00;;;;;;4994401;28;89874;-77
2021/10/10 11:49:39;;;;;;;55.90;22.10;;;24.20;57.10;;;;;;4995600;28;91107;-77
2021/10/10 11:52:30;;;;;;;52.70;20.23;;;24.10;57.20;;;;;;4979913;28;87247;-78
2021/10/10 11:58:01;;;;;;;52.50;21.25;;;24.10;57.30;;;;;;4981424;28;87212;-77
2021/10/10 12:00:33;;;;;;;52.33;22.42;;;24.10;57.40;;;;;;4979341;28;88453;-77
2021/10/10 12:03:19;;;;;;;59.65;21.17;;;24.10;57.40;;;;;;4979882;28;87978;-77
2021/10/10 12:05:45;;;;;;;51.22;21.30;;;24.00;57.40;;;;;;4979215;28;87582;-77
2021/10/10 12:11:33;;;;;;;43.80;19.95;;;24.00;57.50;;;;;;4979155;28;87017;-77
2021/10/10 12:13:59;;;;;;;50.63;21.13;;;24.00;57.60;;;;;;4994977;28;87533;-77
2021/10/10 12:16:24;;;;;;;54.55;21.33;;;24.00;57.60;;;;;;4980787;28;87014;-76
2021/10/10 12:18:56;;;;;;;55.20;21.63;;;24.00;57.60;;;;;;4962429;28;88800;-77
2021/10/10 12:21:30;;;;;;;53.60;22.40;;;23.90;57.70;;;;;;4962658;28;91277;-77
2021/10/10 12:24:29;;;;;;;51.65;21.95;;;23.90;57.70;;;;;;4980822;28;87062;-77
2021/10/10 12:27:02;;;;;;;51.65;21.13;;;23.90;57.80;;;;;;4979989;28;87190;-77
2021/10/10 12:29:34;;;;;;;50.50;19.83;;;23.90;57.80;;;;;;4978777;28;89437;-77
2021/10/10 12:32:16;;;;;;;44.30;19.80;;;23.90;57.80;;;;;;4980355;28;88828;-76
2021/10/10 12:34:49;;;;;;;45.00;19.88;;;23.90;57.90;;;;;;4978527;28;87419;-77
2021/10/10 12:37:23;;;;;;;51.42;21.13;;;23.90;57.90;;;;;;4979222;28;87513;-77
2021/10/10 12:42:22;;;;;;;45.45;19.85;;;23.80;57.90;;;;;;4974988;28;116314;-77
2021/10/10 12:45:08;;;;;;;42.38;18.77;;;23.80;58.00;;;;;;5007689;28;87032;-76
2021/10/10 12:47:33;;;;;;;42.63;18.95;;;23.80;58.00;;;;;;5009216;28;86462;-77
2021/10/10 12:50:12;;;;;;;45.78;20.25;;;23.80;58.10;;;;;;5006494;28;92154;-77
2021/10/10 12:52:40;;;;;;;41.63;19.98;;;23.80;58.10;;;;;;5007035;28;87358;-76
2021/10/10 12:55:52;;;;;;;50.30;20.50;;;23.80;58.10;;;;;;5009139;28;88147;-76